sensor_id;sensor_type;location;lat;lon;timestamp;temperature;humidity
36924;DHT22;22841;50.252;18.688;2023-07-22T00:01:02;17.60;99.90
36924;DHT22;22841;50.252;18.688;2023-07-22T00:03:28;17.60;99.90
36924;DHT22;22841;50.252;18.688;2023-07-22T00:06:09;17.60;99.90
36924;DHT22;22841;50.252;18.688;2023-07-22T00:08:36;17.60;99.90
36924;DHT22;22841;50.252;18.688;2023-07-22T00:11:03;17.60;99.90
36924;DHT22;22841;50.252;18.688;2023-07-22T00:13:30;17.60;99.90
36924;DHT22;22841;50.252;18.688;2023-07-22T00:15:57;17.60;99.90
36924;DHT22;22841;50.252;18.688;2023-07-22T00:18:26;17.60;99.90
36924;DHT22;22841;50.252;18.688;2023-07-22T00:20:54;17.60;99.90
36924;DHT22;22841;50.252;18.688;2023-07-22T00:23:20;17.50;99.90
36924;DHT22;22841;50.252;18.688;2023-07-22T00:25:47;17.50;99.90
36924;DHT22;22841;50.252;18.688;2023-07-22T00:28:13;17.50;99.90
36924;DHT22;22841;50.252;18.688;2023-07-22T00:30:39;17.50;99.90
36924;DHT22;22841;50.252;18.688;2023-07-22T00:33:05;17.50;99.90
36924;DHT22;22841;50.252;18.688;2023-07-22T00:35:32;17.50;99.90
36924;DHT22;22841;50.252;18.688;2023-07-22T00:37:59;17.50;99.90
36924;DHT22;22841;50.252;18.688;2023-07-22T00:40:25;17.60;99.90
36924;DHT22;22841;50.252;18.688;2023-07-22T00:42:51;17.60;99.90
36924;DHT22;22841;50.252;18.688;2023-07-22T00:45:17;17.50;99.90
36924;DHT22;22841;50.252;18.688;2023-07-22T00:47:44;17.50;99.90
36924;DHT22;22841;50.252;18.688;2023-07-22T00:50:11;17.50;99.90
36924;DHT22;22841;50.252;18.688;2023-07-22T00:52:40;17.40;99.90
36924;DHT22;22841;50.252;18.688;2023-07-22T00:55:07;17.40;99.90
36924;DHT22;22841;50.252;18.688;2023-07-22T00:57:33;17.40;99.90
36924;DHT22;22841;50.252;18.688;2023-07-22T01:00:24;17.40;99.90
36924;DHT22;22841;50.252;18.688;2023-07-22T01:03:15;17.40;99.90
36924;DHT22;22841;50.252;18.688;2023-07-22T01:06:07;17.30;99.90
36924;DHT22;22841;50.252;18.688;2023-07-22T01:08:58;17.30;99.90
36924;DHT22;22841;50.252;18.688;2023-07-22T01:11:49;17.30;99.90
36924;DHT22;22841;50.252;18.688;2023-07-22T01:14:41;17.30;99.90
36924;DHT22;22841;50.252;18.688;2023-07-22T01:17:33;17.40;99.90
36924;DHT22;22841;50.252;18.688;2023-07-22T01:20:24;17.30;99.90
36924;DHT22;22841;50.252;18.688;2023-07-22T01:23:15;17.30;99.90
36924;DHT22;22841;50.252;18.688;2023-07-22T01:26:06;17.20;99.90
36924;DHT22;22841;50.252;18.688;2023-07-22T01:29:05;17.30;99.90
36924;DHT22;22841;50.252;18.688;2023-07-22T01:31:56;17.30;99.90
36924;DHT22;22841;50.252;18.688;2023-07-22T01:34:48;17.20;99.90
36924;DHT22;22841;50.252;18.688;2023-07-22T01:37:39;17.20;99.90
36924;DHT22;22841;50.252;18.688;2023-07-22T01:47:05;17.00;1.00
36924;DHT22;22841;50.252;18.688;2023-07-22T01:49:31;16.90;1.00
36924;DHT22;22841;50.252;18.688;2023-07-22T01:51:57;16.90;1.00
36924;DHT22;22841;50.252;18.688;2023-07-22T01:54:23;16.90;1.00
36924;DHT22;22841;50.252;18.688;2023-07-22T01:56:49;16.90;1.00
36924;DHT22;22841;50.252;18.688;2023-07-22T01:59:15;16.80;1.00
36924;DHT22;22841;50.252;18.688;2023-07-22T02:01:41;16.80;1.00
36924;DHT22;22841;50.252;18.688;2023-07-22T02:04:07;16.80;1.00
36924;DHT22;22841;50.252;18.688;2023-07-22T02:06:33;16.70;10.60
36924;DHT22;22841;50.252;18.688;2023-07-22T02:09:00;16.60;32.50
36924;DHT22;22841;50.252;18.688;2023-07-22T02:11:35;16.50;48.50
36924;DHT22;22841;50.252;18.688;2023-07-22T02:14:01;16.40;83.40
36924;DHT22;22841;50.252;18.688;2023-07-22T02:16:27;16.50;81.20
36924;DHT22;22841;50.252;18.688;2023-07-22T02:18:53;16.50;90.70
36924;DHT22;22841;50.252;18.688;2023-07-22T02:21:19;16.40;96.10
36924;DHT22;22841;50.252;18.688;2023-07-22T02:23:45;16.30;98.20
36924;DHT22;22841;50.252;18.688;2023-07-22T02:26:11;16.20;99.90
36924;DHT22;22841;50.252;18.688;2023-07-22T02:28:37;16.20;99.90
36924;DHT22;22841;50.252;18.688;2023-07-22T02:31:03;16.30;99.90
36924;DHT22;22841;50.252;18.688;2023-07-22T02:33:32;16.40;99.90
36924;DHT22;22841;50.252;18.688;2023-07-22T02:35:58;16.30;99.90
36924;DHT22;22841;50.252;18.688;2023-07-22T02:38:24;16.30;99.90
36924;DHT22;22841;50.252;18.688;2023-07-22T02:40:50;16.30;99.90
36924;DHT22;22841;50.252;18.688;2023-07-22T02:43:17;16.40;99.90
36924;DHT22;22841;50.252;18.688;2023-07-22T02:46:07;16.30;99.90
36924;DHT22;22841;50.252;18.688;2023-07-22T02:48:34;16.20;99.90
36924;DHT22;22841;50.252;18.688;2023-07-22T02:51:07;16.30;99.90
36924;DHT22;22841;50.252;18.688;2023-07-22T02:53:35;16.30;99.90
36924;DHT22;22841;50.252;18.688;2023-07-22T02:56:03;16.20;99.90
36924;DHT22;22841;50.252;18.688;2023-07-22T02:58:30;16.20;99.90
36924;DHT22;22841;50.252;18.688;2023-07-22T03:00:56;16.30;99.90
36924;DHT22;22841;50.252;18.688;2023-07-22T03:03:25;16.30;99.90
36924;DHT22;22841;50.252;18.688;2023-07-22T03:05:51;16.30;99.90
36924;DHT22;22841;50.252;18.688;2023-07-22T03:08:18;16.30;99.90
36924;DHT22;22841;50.252;18.688;2023-07-22T03:10:44;16.30;99.90
36924;DHT22;22841;50.252;18.688;2023-07-22T03:13:17;16.30;99.90
36924;DHT22;22841;50.252;18.688;2023-07-22T03:15:43;16.20;99.90
36924;DHT22;22841;50.252;18.688;2023-07-22T03:18:10;16.20;99.90
36924;DHT22;22841;50.252;18.688;2023-07-22T03:20:40;16.20;99.90
36924;DHT22;22841;50.252;18.688;2023-07-22T03:23:07;16.20;99.90
36924;DHT22;22841;50.252;18.688;2023-07-22T03:25:34;16.20;99.90
36924;DHT22;22841;50.252;18.688;2023-07-22T03:28:03;16.20;99.90
36924;DHT22;22841;50.252;18.688;2023-07-22T03:30:29;16.20;99.90
36924;DHT22;22841;50.252;18.688;2023-07-22T03:32:56;16.20;99.90
36924;DHT22;22841;50.252;18.688;2023-07-22T03:35:23;16.20;99.90
36924;DHT22;22841;50.252;18.688;2023-07-22T03:37:49;16.20;99.90
36924;DHT22;22841;50.252;18.688;2023-07-22T03:40:15;16.20;99.90
36924;DHT22;22841;50.252;18.688;2023-07-22T03:43:01;16.20;99.90
36924;DHT22;22841;50.252;18.688;2023-07-22T03:45:27;16.20;99.90
36924;DHT22;22841;50.252;18.688;2023-07-22T03:47:57;16.20;99.90
36924;DHT22;22841;50.252;18.688;2023-07-22T03:50:24;16.20;99.90
36924;DHT22;22841;50.252;18.688;2023-07-22T03:52:50;16.20;99.90
36924;DHT22;22841;50.252;18.688;2023-07-22T03:55:17;16.20;99.90
36924;DHT22;22841;50.252;18.688;2023-07-22T03:57:44;16.20;99.90
36924;DHT22;22841;50.252;18.688;2023-07-22T04:00:10;16.30;99.90
36924;DHT22;22841;50.252;18.688;2023-07-22T04:02:37;16.30;99.90
36924;DHT22;22841;50.252;18.688;2023-07-22T04:05:03;16.30;99.90
36924;DHT22;22841;50.252;18.688;2023-07-22T04:07:29;16.30;99.90
36924;DHT22;22841;50.252;18.688;2023-07-22T04:09:55;16.30;99.90
36924;DHT22;22841;50.252;18.688;2023-07-22T04:12:22;16.20;99.90
36924;DHT22;22841;50.252;18.688;2023-07-22T04:14:48;16.10;99.90
36924;DHT22;22841;50.252;18.688;2023-07-22T04:17:14;16.20;99.90
36924;DHT22;22841;50.252;18.688;2023-07-22T04:19:41;16.20;99.90
36924;DHT22;22841;50.252;18.688;2023-07-22T04:22:08;16.30;99.90
36924;DHT22;22841;50.252;18.688;2023-07-22T04:24:35;16.30;99.90
36924;DHT22;22841;50.252;18.688;2023-07-22T04:27:01;16.30;99.90
36924;DHT22;22841;50.252;18.688;2023-07-22T04:29:53;16.30;99.90
36924;DHT22;22841;50.252;18.688;2023-07-22T04:32:44;16.20;99.90
36924;DHT22;22841;50.252;18.688;2023-07-22T04:35:37;16.20;99.90
36924;DHT22;22841;50.252;18.688;2023-07-22T04:38:04;16.30;99.70
36924;DHT22;22841;50.252;18.688;2023-07-22T04:40:30;16.20;97.80
36924;DHT22;22841;50.252;18.688;2023-07-22T04:42:57;16.20;95.80
36924;DHT22;22841;50.252;18.688;2023-07-22T04:45:23;16.20;95.80
36924;DHT22;22841;50.252;18.688;2023-07-22T04:47:50;16.20;96.40
36924;DHT22;22841;50.252;18.688;2023-07-22T04:50:16;16.20;93.20
36924;DHT22;22841;50.252;18.688;2023-07-22T04:52:46;16.20;90.00
36924;DHT22;22841;50.252;18.688;2023-07-22T04:55:13;16.20;85.60
36924;DHT22;22841;50.252;18.688;2023-07-22T04:57:40;16.20;83.10
36924;DHT22;22841;50.252;18.688;2023-07-22T05:00:11;16.20;80.60
36924;DHT22;22841;50.252;18.688;2023-07-22T05:02:42;16.30;82.50
36924;DHT22;22841;50.252;18.688;2023-07-22T05:05:12;16.30;72.20
36924;DHT22;22841;50.252;18.688;2023-07-22T05:07:39;16.30;65.20
36924;DHT22;22841;50.252;18.688;2023-07-22T05:10:06;16.30;53.10
36924;DHT22;22841;50.252;18.688;2023-07-22T05:12:38;16.30;51.80
36924;DHT22;22841;50.252;18.688;2023-07-22T05:15:05;16.30;49.60
36924;DHT22;22841;50.252;18.688;2023-07-22T05:17:32;16.30;45.80
36924;DHT22;22841;50.252;18.688;2023-07-22T05:19:58;16.30;24.00
36924;DHT22;22841;50.252;18.688;2023-07-22T05:22:24;16.20;18.20
36924;DHT22;22841;50.252;18.688;2023-07-22T05:24:51;16.20;24.80
36924;DHT22;22841;50.252;18.688;2023-07-22T05:27:17;16.20;42.00
36924;DHT22;22841;50.252;18.688;2023-07-22T05:29:44;16.20;32.70
36924;DHT22;22841;50.252;18.688;2023-07-22T05:32:11;16.20;15.90
36924;DHT22;22841;50.252;18.688;2023-07-22T05:34:37;16.20;18.00
36924;DHT22;22841;50.252;18.688;2023-07-22T05:37:03;16.30;16.40
36924;DHT22;22841;50.252;18.688;2023-07-22T05:39:29;16.30;17.90
36924;DHT22;22841;50.252;18.688;2023-07-22T05:41:55;16.30;32.30
36924;DHT22;22841;50.252;18.688;2023-07-22T05:44:21;16.40;24.60
36924;DHT22;22841;50.252;18.688;2023-07-22T05:50:55;16.40;15.40
36924;DHT22;22841;50.252;18.688;2023-07-22T05:53:21;16.40;6.30
36924;DHT22;22841;50.252;18.688;2023-07-22T05:55:47;16.40;1.00
36924;DHT22;22841;50.252;18.688;2023-07-22T05:58:17;16.50;1.00
36924;DHT22;22841;50.252;18.688;2023-07-22T06:00:44;16.50;1.00
36924;DHT22;22841;50.252;18.688;2023-07-22T06:03:10;16.60;1.00
36924;DHT22;22841;50.252;18.688;2023-07-22T06:05:36;16.70;1.00
36924;DHT22;22841;50.252;18.688;2023-07-22T06:08:03;16.70;99.90
36924;DHT22;22841;50.252;18.688;2023-07-22T06:10:29;16.80;99.90
36924;DHT22;22841;50.252;18.688;2023-07-22T06:12:56;17.00;99.90
36924;DHT22;22841;50.252;18.688;2023-07-22T06:15:22;17.00;99.90
36924;DHT22;22841;50.252;18.688;2023-07-22T06:17:48;17.10;99.90
36924;DHT22;22841;50.252;18.688;2023-07-22T06:20:14;17.00;99.90
36924;DHT22;22841;50.252;18.688;2023-07-22T06:22:40;17.00;99.90
36924;DHT22;22841;50.252;18.688;2023-07-22T06:25:06;17.00;97.30
36924;DHT22;22841;50.252;18.688;2023-07-22T06:27:33;17.00;99.90
36924;DHT22;22841;50.252;18.688;2023-07-22T06:30:00;17.00;99.90
36924;DHT22;22841;50.252;18.688;2023-07-22T06:32:26;17.10;59.50
36924;DHT22;22841;50.252;18.688;2023-07-22T06:34:56;17.00;99.90
36924;DHT22;22841;50.252;18.688;2023-07-22T06:37:23;17.00;41.60
36924;DHT22;22841;50.252;18.688;2023-07-22T06:39:50;17.10;99.90
36924;DHT22;22841;50.252;18.688;2023-07-22T06:42:16;17.10;1.00
36924;DHT22;22841;50.252;18.688;2023-07-22T06:44:43;17.00;1.00
36924;DHT22;22841;50.252;18.688;2023-07-22T06:47:09;17.00;1.00
36924;DHT22;22841;50.252;18.688;2023-07-22T06:49:35;17.00;1.00
36924;DHT22;22841;50.252;18.688;2023-07-22T06:52:01;17.10;53.50
36924;DHT22;22841;50.252;18.688;2023-07-22T06:54:27;17.30;1.00
36924;DHT22;22841;50.252;18.688;2023-07-22T06:56:53;17.40;53.10
36924;DHT22;22841;50.252;18.688;2023-07-22T06:59:19;17.50;99.90
36924;DHT22;22841;50.252;18.688;2023-07-22T07:01:46;17.60;99.90
36924;DHT22;22841;50.252;18.688;2023-07-22T07:04:12;17.80;1.00
36924;DHT22;22841;50.252;18.688;2023-07-22T07:06:38;17.80;99.90
36924;DHT22;22841;50.252;18.688;2023-07-22T07:09:04;17.90;96.40
36924;DHT22;22841;50.252;18.688;2023-07-22T07:11:31;18.10;99.90
36924;DHT22;22841;50.252;18.688;2023-07-22T07:13:58;18.10;99.90
36924;DHT22;22841;50.252;18.688;2023-07-22T07:16:29;18.10;1.00
36924;DHT22;22841;50.252;18.688;2023-07-22T07:18:58;18.30;99.90
36924;DHT22;22841;50.252;18.688;2023-07-22T07:21:24;18.40;99.90
36924;DHT22;22841;50.252;18.688;2023-07-22T07:23:52;18.40;1.00
36924;DHT22;22841;50.252;18.688;2023-07-22T07:26:19;18.50;1.00
36924;DHT22;22841;50.252;18.688;2023-07-22T07:28:46;18.60;99.90
36924;DHT22;22841;50.252;18.688;2023-07-22T07:31:12;18.70;99.90
36924;DHT22;22841;50.252;18.688;2023-07-22T07:33:39;18.70;60.10
36924;DHT22;22841;50.252;18.688;2023-07-22T07:36:05;18.80;99.90
36924;DHT22;22841;50.252;18.688;2023-07-22T07:38:31;18.90;93.10
36924;DHT22;22841;50.252;18.688;2023-07-22T07:40:59;18.90;1.00
36924;DHT22;22841;50.252;18.688;2023-07-22T07:43:26;18.90;18.10
36924;DHT22;22841;50.252;18.688;2023-07-22T07:46:20;18.90;99.90
36924;DHT22;22841;50.252;18.688;2023-07-22T07:48:50;19.00;99.90
36924;DHT22;22841;50.252;18.688;2023-07-22T07:51:17;19.10;99.90
36924;DHT22;22841;50.252;18.688;2023-07-22T07:53:47;19.20;99.90
36924;DHT22;22841;50.252;18.688;2023-07-22T07:56:14;19.30;1.00
36924;DHT22;22841;50.252;18.688;2023-07-22T07:58:41;19.50;1.00
36924;DHT22;22841;50.252;18.688;2023-07-22T08:01:08;19.70;99.90
36924;DHT22;22841;50.252;18.688;2023-07-22T08:03:35;19.90;99.90
36924;DHT22;22841;50.252;18.688;2023-07-22T08:06:02;19.80;1.00
36924;DHT22;22841;50.252;18.688;2023-07-22T08:08:29;19.70;99.90
36924;DHT22;22841;50.252;18.688;2023-07-22T08:13:25;19.70;99.90
36924;DHT22;22841;50.252;18.688;2023-07-22T08:15:52;19.70;1.00
36924;DHT22;22841;50.252;18.688;2023-07-22T08:18:18;20.00;99.90
36924;DHT22;22841;50.252;18.688;2023-07-22T08:20:45;20.00;1.00
36924;DHT22;22841;50.252;18.688;2023-07-22T08:23:14;19.90;1.00
36924;DHT22;22841;50.252;18.688;2023-07-22T08:25:40;19.90;99.90
36924;DHT22;22841;50.252;18.688;2023-07-22T08:28:06;20.00;99.90
36924;DHT22;22841;50.252;18.688;2023-07-22T08:30:32;20.30;99.90
36924;DHT22;22841;50.252;18.688;2023-07-22T08:32:58;20.30;99.90
36924;DHT22;22841;50.252;18.688;2023-07-22T08:35:24;20.20;99.90
36924;DHT22;22841;50.252;18.688;2023-07-22T08:37:50;20.00;1.00
36924;DHT22;22841;50.252;18.688;2023-07-22T08:40:16;20.00;1.00
36924;DHT22;22841;50.252;18.688;2023-07-22T08:42:44;20.00;99.90
36924;DHT22;22841;50.252;18.688;2023-07-22T08:45:11;20.00;1.00
36924;DHT22;22841;50.252;18.688;2023-07-22T08:47:46;19.90;1.00
36924;DHT22;22841;50.252;18.688;2023-07-22T08:50:18;20.00;1.00
36924;DHT22;22841;50.252;18.688;2023-07-22T08:52:46;20.00;99.90
36924;DHT22;22841;50.252;18.688;2023-07-22T08:55:13;20.30;99.90
36924;DHT22;22841;50.252;18.688;2023-07-22T08:57:40;20.50;1.00
36924;DHT22;22841;50.252;18.688;2023-07-22T09:00:07;20.60;99.90
36924;DHT22;22841;50.252;18.688;2023-07-22T09:18:58;21.10;99.90
36924;DHT22;22841;50.252;18.688;2023-07-22T09:21:24;21.10;99.90
36924;DHT22;22841;50.252;18.688;2023-07-22T09:23:50;21.00;99.90
36924;DHT22;22841;50.252;18.688;2023-07-22T09:26:17;21.00;99.90
36924;DHT22;22841;50.252;18.688;2023-07-22T09:28:57;21.10;99.90
36924;DHT22;22841;50.252;18.688;2023-07-22T09:31:25;21.30;99.90
36924;DHT22;22841;50.252;18.688;2023-07-22T09:33:52;21.40;99.90
36924;DHT22;22841;50.252;18.688;2023-07-22T09:36:21;21.20;99.90
36924;DHT22;22841;50.252;18.688;2023-07-22T09:39:03;20.90;99.90
36924;DHT22;22841;50.252;18.688;2023-07-22T09:41:29;20.70;99.90
36924;DHT22;22841;50.252;18.688;2023-07-22T09:43:56;20.50;99.90
36924;DHT22;22841;50.252;18.688;2023-07-22T09:46:33;20.20;99.90
36924;DHT22;22841;50.252;18.688;2023-07-22T09:49:03;20.20;99.90
36924;DHT22;22841;50.252;18.688;2023-07-22T09:51:37;20.40;1.00
36924;DHT22;22841;50.252;18.688;2023-07-22T09:54:05;20.70;99.90
36924;DHT22;22841;50.252;18.688;2023-07-22T09:56:32;21.00;99.90
36924;DHT22;22841;50.252;18.688;2023-07-22T09:59:00;21.20;1.00
36924;DHT22;22841;50.252;18.688;2023-07-22T10:01:30;21.30;1.00
36924;DHT22;22841;50.252;18.688;2023-07-22T10:03:56;21.30;1.00
36924;DHT22;22841;50.252;18.688;2023-07-22T10:06:29;21.40;1.00
36924;DHT22;22841;50.252;18.688;2023-07-22T10:08:56;21.50;1.00
36924;DHT22;22841;50.252;18.688;2023-07-22T10:11:25;21.70;1.00
36924;DHT22;22841;50.252;18.688;2023-07-22T10:13:53;21.60;1.00
36924;DHT22;22841;50.252;18.688;2023-07-22T10:16:19;21.50;1.00
36924;DHT22;22841;50.252;18.688;2023-07-22T10:18:46;21.30;1.00
36924;DHT22;22841;50.252;18.688;2023-07-22T10:21:14;21.20;1.00
36924;DHT22;22841;50.252;18.688;2023-07-22T10:23:41;21.20;1.00
36924;DHT22;22841;50.252;18.688;2023-07-22T10:26:08;21.20;1.00
36924;DHT22;22841;50.252;18.688;2023-07-22T10:28:37;21.30;1.00
36924;DHT22;22841;50.252;18.688;2023-07-22T10:31:03;21.30;1.00
36924;DHT22;22841;50.252;18.688;2023-07-22T10:33:29;21.40;1.00
36924;DHT22;22841;50.252;18.688;2023-07-22T10:36:08;21.60;1.00
36924;DHT22;22841;50.252;18.688;2023-07-22T10:38:36;21.70;1.00
36924;DHT22;22841;50.252;18.688;2023-07-22T10:41:14;21.80;1.00
36924;DHT22;22841;50.252;18.688;2023-07-22T10:43:54;21.80;1.00
36924;DHT22;22841;50.252;18.688;2023-07-22T10:46:36;21.70;99.90
36924;DHT22;22841;50.252;18.688;2023-07-22T10:49:13;21.60;99.90
36924;DHT22;22841;50.252;18.688;2023-07-22T10:51:40;21.70;1.00
36924;DHT22;22841;50.252;18.688;2023-07-22T10:54:13;21.80;99.90
36924;DHT22;22841;50.252;18.688;2023-07-22T10:56:42;21.90;99.90
36924;DHT22;22841;50.252;18.688;2023-07-22T10:59:10;21.80;99.90
36924;DHT22;22841;50.252;18.688;2023-07-22T11:01:43;21.80;99.90
36924;DHT22;22841;50.252;18.688;2023-07-22T11:04:23;21.80;99.90
36924;DHT22;22841;50.252;18.688;2023-07-22T11:07:00;21.90;1.00
36924;DHT22;22841;50.252;18.688;2023-07-22T11:12:03;22.00;99.90
36924;DHT22;22841;50.252;18.688;2023-07-22T11:14:31;21.90;99.90
36924;DHT22;22841;50.252;18.688;2023-07-22T11:16:59;21.80;99.90
36924;DHT22;22841;50.252;18.688;2023-07-22T11:19:26;21.80;1.00
36924;DHT22;22841;50.252;18.688;2023-07-22T11:21:53;21.60;1.00
36924;DHT22;22841;50.252;18.688;2023-07-22T11:24:21;21.50;1.00
36924;DHT22;22841;50.252;18.688;2023-07-22T11:26:48;21.50;1.00
36924;DHT22;22841;50.252;18.688;2023-07-22T11:29:16;21.50;1.00
36924;DHT22;22841;50.252;18.688;2023-07-22T11:31:47;21.50;1.00
36924;DHT22;22841;50.252;18.688;2023-07-22T11:34:17;21.50;1.00
36924;DHT22;22841;50.252;18.688;2023-07-22T11:36:46;21.60;1.00
36924;DHT22;22841;50.252;18.688;2023-07-22T11:39:14;21.70;1.00
36924;DHT22;22841;50.252;18.688;2023-07-22T11:42:06;21.80;1.00
36924;DHT22;22841;50.252;18.688;2023-07-22T11:44:58;21.70;1.00
36924;DHT22;22841;50.252;18.688;2023-07-22T11:47:49;21.60;1.00
36924;DHT22;22841;50.252;18.688;2023-07-22T11:50:40;21.60;1.00
36924;DHT22;22841;50.252;18.688;2023-07-22T11:53:31;21.50;99.90
36924;DHT22;22841;50.252;18.688;2023-07-22T11:55:57;21.40;99.90
36924;DHT22;22841;50.252;18.688;2023-07-22T11:58:27;21.40;1.00
36924;DHT22;22841;50.252;18.688;2023-07-22T12:01:09;21.40;1.00
36924;DHT22;22841;50.252;18.688;2023-07-22T12:03:36;21.40;1.00
36924;DHT22;22841;50.252;18.688;2023-07-22T12:06:06;21.40;1.00
36924;DHT22;22841;50.252;18.688;2023-07-22T12:08:36;21.40;99.90
36924;DHT22;22841;50.252;18.688;2023-07-22T12:11:03;21.40;99.90
36924;DHT22;22841;50.252;18.688;2023-07-22T12:13:36;21.30;1.00
36924;DHT22;22841;50.252;18.688;2023-07-22T12:16:04;21.50;1.00
36924;DHT22;22841;50.252;18.688;2023-07-22T12:18:46;21.60;1.00
36924;DHT22;22841;50.252;18.688;2023-07-22T12:21:13;21.80;1.00
36924;DHT22;22841;50.252;18.688;2023-07-22T12:23:45;22.10;1.00
36924;DHT22;22841;50.252;18.688;2023-07-22T12:26:11;22.40;1.00
36924;DHT22;22841;50.252;18.688;2023-07-22T12:28:37;22.50;99.90
36924;DHT22;22841;50.252;18.688;2023-07-22T12:31:03;22.30;99.90
36924;DHT22;22841;50.252;18.688;2023-07-22T12:33:29;22.20;99.90
36924;DHT22;22841;50.252;18.688;2023-07-22T12:35:57;22.10;99.90
36924;DHT22;22841;50.252;18.688;2023-07-22T12:38:23;22.00;99.90
36924;DHT22;22841;50.252;18.688;2023-07-22T12:40:49;21.90;99.90
36924;DHT22;22841;50.252;18.688;2023-07-22T12:43:15;21.80;99.90
36924;DHT22;22841;50.252;18.688;2023-07-22T12:45:41;21.70;1.00
36924;DHT22;22841;50.252;18.688;2023-07-22T12:48:09;21.60;99.90
36924;DHT22;22841;50.252;18.688;2023-07-22T12:50:35;21.50;99.90
36924;DHT22;22841;50.252;18.688;2023-07-22T12:53:02;21.40;1.00
36924;DHT22;22841;50.252;18.688;2023-07-22T12:55:28;21.30;99.90
36924;DHT22;22841;50.252;18.688;2023-07-22T12:57:55;21.30;99.90
36924;DHT22;22841;50.252;18.688;2023-07-22T13:00:21;21.30;1.00
36924;DHT22;22841;50.252;18.688;2023-07-22T13:02:47;21.30;1.00
36924;DHT22;22841;50.252;18.688;2023-07-22T13:05:14;21.40;1.00
36924;DHT22;22841;50.252;18.688;2023-07-22T13:07:40;21.50;1.00
36924;DHT22;22841;50.252;18.688;2023-07-22T13:10:12;21.60;99.90
36924;DHT22;22841;50.252;18.688;2023-07-22T13:12:42;21.80;1.00
36924;DHT22;22841;50.252;18.688;2023-07-22T13:15:08;21.80;99.90
36924;DHT22;22841;50.252;18.688;2023-07-22T13:17:35;22.00;1.00
36924;DHT22;22841;50.252;18.688;2023-07-22T13:20:01;22.30;99.90
36924;DHT22;22841;50.252;18.688;2023-07-22T13:22:27;22.60;99.90
36924;DHT22;22841;50.252;18.688;2023-07-22T13:24:53;22.80;99.90
36924;DHT22;22841;50.252;18.688;2023-07-22T13:27:19;22.90;99.90
36924;DHT22;22841;50.252;18.688;2023-07-22T13:29:45;22.60;99.90
36924;DHT22;22841;50.252;18.688;2023-07-22T13:32:11;22.30;99.90
36924;DHT22;22841;50.252;18.688;2023-07-22T13:34:37;22.20;99.90
36924;DHT22;22841;50.252;18.688;2023-07-22T13:37:03;22.20;99.90
36924;DHT22;22841;50.252;18.688;2023-07-22T13:39:30;22.00;99.90
36924;DHT22;22841;50.252;18.688;2023-07-22T13:41:56;22.10;99.90
36924;DHT22;22841;50.252;18.688;2023-07-22T13:44:22;22.00;99.90
36924;DHT22;22841;50.252;18.688;2023-07-22T13:46:48;22.00;99.90
36924;DHT22;22841;50.252;18.688;2023-07-22T13:49:14;22.10;99.90
36924;DHT22;22841;50.252;18.688;2023-07-22T13:51:41;22.20;99.90
36924;DHT22;22841;50.252;18.688;2023-07-22T13:54:07;22.30;99.90
36924;DHT22;22841;50.252;18.688;2023-07-22T14:00:15;22.70;99.90
36924;DHT22;22841;50.252;18.688;2023-07-22T14:02:41;23.10;99.90
36924;DHT22;22841;50.252;18.688;2023-07-22T14:05:08;23.20;99.90
36924;DHT22;22841;50.252;18.688;2023-07-22T14:07:35;23.30;99.90
36924;DHT22;22841;50.252;18.688;2023-07-22T14:10:03;23.20;99.90
36924;DHT22;22841;50.252;18.688;2023-07-22T14:12:30;23.10;99.90
36924;DHT22;22841;50.252;18.688;2023-07-22T14:14:56;23.00;99.90
36924;DHT22;22841;50.252;18.688;2023-07-22T14:17:47;23.00;99.90
36924;DHT22;22841;50.252;18.688;2023-07-22T14:20:38;22.90;99.90
36924;DHT22;22841;50.252;18.688;2023-07-22T14:23:08;22.80;99.90
36924;DHT22;22841;50.252;18.688;2023-07-22T14:25:34;22.90;99.90
36924;DHT22;22841;50.252;18.688;2023-07-22T14:28:00;23.00;99.90
36924;DHT22;22841;50.252;18.688;2023-07-22T14:30:26;22.90;99.90
36924;DHT22;22841;50.252;18.688;2023-07-22T14:32:52;22.80;99.90
36924;DHT22;22841;50.252;18.688;2023-07-22T14:35:18;22.70;99.90
36924;DHT22;22841;50.252;18.688;2023-07-22T14:37:44;22.80;99.90
36924;DHT22;22841;50.252;18.688;2023-07-22T14:40:12;23.10;99.90
36924;DHT22;22841;50.252;18.688;2023-07-22T14:42:38;23.30;99.90
36924;DHT22;22841;50.252;18.688;2023-07-22T14:45:08;23.20;99.90
36924;DHT22;22841;50.252;18.688;2023-07-22T14:47:35;23.30;99.90
36924;DHT22;22841;50.252;18.688;2023-07-22T14:50:01;23.30;99.90
36924;DHT22;22841;50.252;18.688;2023-07-22T14:52:27;23.50;99.90
36924;DHT22;22841;50.252;18.688;2023-07-22T14:54:53;23.60;99.90
36924;DHT22;22841;50.252;18.688;2023-07-22T14:57:19;23.70;99.90
36924;DHT22;22841;50.252;18.688;2023-07-22T14:59:45;23.80;99.90
36924;DHT22;22841;50.252;18.688;2023-07-22T15:02:12;23.70;99.90
36924;DHT22;22841;50.252;18.688;2023-07-22T15:04:38;23.60;99.90
36924;DHT22;22841;50.252;18.688;2023-07-22T15:07:04;23.50;99.90
36924;DHT22;22841;50.252;18.688;2023-07-22T15:09:30;23.60;99.90
36924;DHT22;22841;50.252;18.688;2023-07-22T15:11:56;23.50;99.90
36924;DHT22;22841;50.252;18.688;2023-07-22T15:14:23;23.40;99.90
36924;DHT22;22841;50.252;18.688;2023-07-22T15:16:49;23.10;99.90
36924;DHT22;22841;50.252;18.688;2023-07-22T15:19:15;22.90;99.90
36924;DHT22;22841;50.252;18.688;2023-07-22T15:21:41;22.90;99.90
36924;DHT22;22841;50.252;18.688;2023-07-22T15:24:07;23.00;99.90
36924;DHT22;22841;50.252;18.688;2023-07-22T15:26:33;23.20;99.90
36924;DHT22;22841;50.252;18.688;2023-07-22T15:28:59;23.20;99.90
36924;DHT22;22841;50.252;18.688;2023-07-22T15:31:26;23.30;99.90
36924;DHT22;22841;50.252;18.688;2023-07-22T15:33:52;23.30;99.90
36924;DHT22;22841;50.252;18.688;2023-07-22T15:36:18;23.30;99.90
36924;DHT22;22841;50.252;18.688;2023-07-22T15:38:44;23.30;99.90
36924;DHT22;22841;50.252;18.688;2023-07-22T15:41:10;23.30;99.90
36924;DHT22;22841;50.252;18.688;2023-07-22T15:43:37;23.30;99.90
36924;DHT22;22841;50.252;18.688;2023-07-22T15:46:03;23.30;99.90
36924;DHT22;22841;50.252;18.688;2023-07-22T15:48:29;23.20;99.90
36924;DHT22;22841;50.252;18.688;2023-07-22T15:50:55;23.10;99.90
36924;DHT22;22841;50.252;18.688;2023-07-22T15:53:22;23.00;99.90
36924;DHT22;22841;50.252;18.688;2023-07-22T15:55:48;23.00;99.90
36924;DHT22;22841;50.252;18.688;2023-07-22T15:58:14;23.00;99.90
36924;DHT22;22841;50.252;18.688;2023-07-22T16:00:41;23.00;99.90
36924;DHT22;22841;50.252;18.688;2023-07-22T16:03:07;22.90;99.90
36924;DHT22;22841;50.252;18.688;2023-07-22T16:05:35;22.90;99.90
36924;DHT22;22841;50.252;18.688;2023-07-22T16:08:02;22.80;99.90